Time;durP1;ratioP1;P1;durP2;ratioP2;P2;SDS_P1;SDS_P2;PMS_P1;PMS_P2;Temp;Humidity;BMP_temperature;BMP_pressure;BME280_temperature;BME280_humidity;BME280_pressure;Samples;Min_cycle;Max_cycle;Signal;HPM_P1;HPM_P2
2023/05/26 00:00:12;;;;;;;1.10;1.00;;;19.80;39.90;;;;;;5117864;28;20205;-82
2023/05/26 00:02:39;;;;;;;1.00;0.90;;;19.80;40.00;;;;;;5099778;28;20210;-82
2023/05/26 00:05:06;;;;;;;1.40;1.10;;;19.80;40.10;;;;;;5116644;28;20156;-82
2023/05/26 00:07:33;;;;;;;2.00;0.90;;;19.80;40.00;;;;;;5116305;28;20148;-81
2023/05/26 00:09:58;;;;;;;2.05;0.90;;;19.80;39.90;;;;;;5116777;28;20191;-82
2023/05/26 00:12:24;;;;;;;1.10;0.98;;;19.80;39.90;;;;;;5099232;28;20152;-81
2023/05/26 00:14:50;;;;;;;1.70;0.90;;;19.80;40.00;;;;;;5117706;28;20237;-81
2023/05/26 00:17:17;;;;;;;0.80;0.80;;;19.80;40.10;;;;;;5116533;28;20683;-81
2023/05/26 00:19:43;;;;;;;1.00;0.90;;;19.80;40.00;;;;;;5115790;28;20266;-81
2023/05/26 00:22:11;;;;;;;1.60;0.98;;;19.80;39.90;;;;;;5116029;28;20159;-81
2023/05/26 00:24:38;;;;;;;1.52;1.10;;;19.80;40.00;;;;;;5116295;28;20548;-81
2023/05/26 00:27:03;;;;;;;0.90;0.82;;;19.70;39.80;;;;;;5117139;28;20302;-81
2023/05/26 00:29:30;;;;;;;1.35;1.00;;;19.70;39.80;;;;;;5116181;28;20611;-83
2023/05/26 00:31:56;;;;;;;1.17;1.05;;;19.70;39.80;;;;;;5098807;28;20211;-81
2023/05/26 00:34:23;;;;;;;1.30;0.98;;;19.80;40.00;;;;;;5099239;28;20160;-81
2023/05/26 00:36:48;;;;;;;1.35;1.00;;;19.70;39.80;;;;;;5115966;28;20148;-82
2023/05/26 00:39:14;;;;;;;1.50;1.10;;;19.70;39.90;;;;;;5116156;28;20185;-83
2023/05/26 00:41:41;;;;;;;1.40;1.05;;;19.70;39.80;;;;;;5115714;28;20620;-83
2023/05/26 00:44:06;;;;;;;0.90;0.80;;;19.80;39.90;;;;;;5115909;28;20192;-83
2023/05/26 00:46:33;;;;;;;0.98;0.90;;;19.80;40.00;;;;;;5115750;28;20168;-83
2023/05/26 00:48:59;;;;;;;1.52;1.00;;;19.70;39.90;;;;;;5115906;28;20614;-86
2023/05/26 00:51:25;;;;;;;1.30;0.82;;;19.80;40.00;;;;;;5098819;28;20167;-82
2023/05/26 00:53:51;;;;;;;0.80;0.80;;;19.80;40.00;;;;;;5115577;28;20241;-83
2023/05/26 00:56:18;;;;;;;1.20;1.10;;;19.70;40.00;;;;;;5098700;28;20619;-83
2023/05/26 00:58:43;;;;;;;1.38;1.10;;;19.80;40.10;;;;;;5115374;28;20144;-83
2023/05/26 01:01:12;;;;;;;1.15;1.00;;;19.70;40.00;;;;;;5115464;28;20231;-83
2023/05/26 01:03:38;;;;;;;1.02;0.80;;;19.70;40.10;;;;;;5115321;28;20540;-82
2023/05/26 01:06:04;;;;;;;0.85;0.80;;;19.70;40.10;;;;;;5115247;28;20614;-83
2023/05/26 01:08:30;;;;;;;1.42;0.98;;;19.70;40.00;;;;;;5098301;28;20176;-84
2023/05/26 01:11:00;;;;;;;1.60;0.98;;;19.70;40.10;;;;;;5097712;28;20192;-82
2023/05/26 01:13:29;;;;;;;1.05;0.90;;;19.70;40.10;;;;;;5115352;28;20152;-83
2023/05/26 01:15:59;;;;;;;2.03;1.17;;;19.80;40.10;;;;;;5115335;28;20160;-83
2023/05/26 01:18:29;;;;;;;1.20;1.05;;;19.70;40.00;;;;;;5115655;28;20156;-83
2023/05/26 01:21:01;;;;;;;1.08;0.98;;;19.80;40.10;;;;;;5114860;28;20752;-83
2023/05/26 01:23:33;;;;;;;1.10;1.00;;;19.70;40.10;;;;;;5116677;28;20296;-83
2023/05/26 01:26:33;;;;;;;1.13;0.98;;;19.80;40.10;;;;;;5114991;28;20216;-83
2023/05/26 01:29:01;;;;;;;1.17;1.08;;;19.70;40.10;;;;;;5116167;28;20532;-83
2023/05/26 01:31:27;;;;;;;0.80;0.80;;;19.70;40.10;;;;;;5115411;28;20156;-83
2023/05/26 01:33:53;;;;;;;1.35;1.00;;;19.70;40.10;;;;;;5114574;28;20626;-83
2023/05/26 01:36:20;;;;;;;1.10;1.00;;;19.70;40.20;;;;;;5114979;28;20163;-83
2023/05/26 01:38:48;;;;;;;1.88;1.30;;;19.70;40.20;;;;;;5116030;28;20160;-83
2023/05/26 01:41:39;;;;;;;1.52;1.02;;;19.70;40.10;;;;;;5098124;28;20164;-82
2023/05/26 01:44:10;;;;;;;1.00;0.85;;;19.70;40.20;;;;;;5100921;28;20555;-83
2023/05/26 01:46:41;;;;;;;1.67;1.10;;;19.70;40.20;;;;;;5098601;28;20195;-83
2023/05/26 01:49:09;;;;;;;2.28;0.95;;;19.70;40.20;;;;;;5114726;28;20525;-83
2023/05/26 01:51:35;;;;;;;1.00;0.90;;;19.70;40.20;;;;;;5116498;28;20152;-83
2023/05/26 01:54:01;;;;;;;1.42;0.98;;;19.70;40.10;;;;;;5114462;28;20168;-83
2023/05/26 01:56:31;;;;;;;0.95;0.90;;;19.70;40.20;;;;;;5114644;28;20239;-83
2023/05/26 01:58:58;;;;;;;1.10;1.00;;;19.70;40.20;;;;;;5097996;28;20164;-83
2023/05/26 02:01:26;;;;;;;1.00;0.90;;;19.70;40.20;;;;;;5114308;28;20161;-83
2023/05/26 02:03:52;;;;;;;2.28;1.00;;;19.60;40.20;;;;;;5114748;28;20159;-83
2023/05/26 02:06:18;;;;;;;0.95;0.88;;;19.80;40.40;;;;;;5115391;28;20164;-83
2023/05/26 02:08:44;;;;;;;1.38;0.90;;;19.70;40.30;;;;;;5118969;28;20156;-83
2023/05/26 02:11:10;;;;;;;1.08;0.93;;;19.70;40.30;;;;;;5101541;28;20553;-83
2023/05/26 02:13:37;;;;;;;0.95;0.80;;;19.70;40.30;;;;;;5118796;28;20212;-83
2023/05/26 02:16:05;;;;;;;1.67;1.13;;;19.70;40.30;;;;;;5103440;28;20263;-83
2023/05/26 02:18:31;;;;;;;1.77;1.17;;;19.80;40.40;;;;;;5125322;28;20159;-83
2023/05/26 02:20:58;;;;;;;1.75;1.20;;;19.70;40.30;;;;;;5124518;28;20530;-83
2023/05/26 02:23:29;;;;;;;1.00;0.90;;;19.70;40.30;;;;;;5124149;28;20182;-82
2023/05/26 02:25:55;;;;;;;0.98;0.90;;;19.70;40.30;;;;;;5125247;28;20609;-82
2023/05/26 02:28:22;;;;;;;1.77;1.10;;;19.70;40.30;;;;;;5106527;28;20179;-83
2023/05/26 02:30:47;;;;;;;1.55;1.00;;;19.70;40.40;;;;;;5124157;28;20187;-83
2023/05/26 02:33:13;;;;;;;0.98;0.90;;;19.70;40.50;;;;;;5123511;28;20160;-83
2023/05/26 02:35:38;;;;;;;1.27;1.05;;;19.70;40.40;;;;;;5123556;28;20602;-83
2023/05/26 02:38:04;;;;;;;1.60;1.10;;;19.70;41.10;;;;;;5106673;28;20566;-83
2023/05/26 02:40:32;;;;;;;2.80;0.98;;;19.70;41.20;;;;;;5106789;28;20534;-83
2023/05/26 02:42:57;;;;;;;1.10;1.00;;;19.70;40.50;;;;;;5125741;28;20240;-83
2023/05/26 02:45:26;;;;;;;1.08;0.93;;;19.70;40.50;;;;;;5123852;28;20592;-83
2023/05/26 02:47:52;;;;;;;1.35;1.00;;;19.70;40.50;;;;;;5106475;28;20172;-83
2023/05/26 02:50:18;;;;;;;1.08;0.88;;;19.70;40.50;;;;;;5122961;28;20211;-83
2023/05/26 02:52:45;;;;;;;2.50;1.13;;;19.70;40.40;;;;;;5123103;28;20159;-83
2023/05/26 02:55:11;;;;;;;1.40;1.05;;;19.60;40.40;;;;;;5105614;28;20164;-83
2023/05/26 02:57:37;;;;;;;1.60;1.15;;;19.70;40.50;;;;;;5105583;28;20176;-83
2023/05/26 03:00:07;;;;;;;1.40;1.15;;;19.70;40.50;;;;;;5122009;28;20175;-83
2023/05/26 03:02:33;;;;;;;1.55;1.17;;;19.70;40.50;;;;;;5105181;28;20172;-83
2023/05/26 03:05:00;;;;;;;1.38;1.02;;;19.60;40.50;;;;;;5122041;28;20160;-83
2023/05/26 03:07:26;;;;;;;1.58;1.10;;;19.70;40.50;;;;;;5121482;28;20153;-83
2023/05/26 03:09:55;;;;;;;1.35;1.20;;;19.70;40.50;;;;;;5121370;28;20191;-83
2023/05/26 03:12:20;;;;;;;0.95;0.82;;;19.70;40.50;;;;;;5120700;28;20148;-83
2023/05/26 03:14:46;;;;;;;1.30;1.00;;;19.60;40.50;;;;;;5104175;28;20261;-83
2023/05/26 03:17:13;;;;;;;1.48;1.00;;;19.70;40.60;;;;;;5122022;28;20484;-83
2023/05/26 03:19:39;;;;;;;1.00;0.85;;;19.70;40.50;;;;;;5118570;28;20159;-83
2023/05/26 03:22:06;;;;;;;1.13;1.02;;;19.60;40.50;;;;;;5119925;28;20157;-83
2023/05/26 03:24:33;;;;;;;1.52;0.90;;;19.60;40.60;;;;;;5119968;28;20148;-83
2023/05/26 03:27:01;;;;;;;1.98;1.00;;;19.70;40.60;;;;;;5119465;28;20242;-82
2023/05/26 03:29:29;;;;;;;1.77;1.10;;;19.60;40.60;;;;;;5103021;28;20230;-83
2023/05/26 03:31:57;;;;;;;1.05;0.90;;;19.70;40.60;;;;;;5102772;28;20621;-83
2023/05/26 03:34:24;;;;;;;1.30;1.20;;;19.60;41.00;;;;;;5119450;28;20168;-83
2023/05/26 03:36:52;;;;;;;1.05;0.95;;;19.70;40.60;;;;;;5119439;28;20606;-83
2023/05/26 03:39:21;;;;;;;1.25;0.93;;;19.70;40.60;;;;;;5102508;28;20608;-83
2023/05/26 03:41:49;;;;;;;1.40;1.10;;;19.70;40.70;;;;;;5102104;28;20224;-83
2023/05/26 03:44:19;;;;;;;1.20;1.10;;;19.70;40.60;;;;;;5120603;28;20148;-83
2023/05/26 03:46:46;;;;;;;1.40;0.82;;;19.60;40.60;;;;;;5118980;28;20545;-83
2023/05/26 03:49:11;;;;;;;1.00;0.90;;;19.70;40.70;;;;;;5119146;28;20239;-83
2023/05/26 03:51:39;;;;;;;1.13;1.00;;;19.60;40.70;;;;;;5119333;27;20188;-83
2023/05/26 03:54:06;;;;;;;1.60;0.90;;;19.60;40.60;;;;;;5119369;28;20148;-83
2023/05/26 03:56:32;;;;;;;1.08;0.98;;;19.60;40.70;;;;;;5119031;28;20163;-83
2023/05/26 03:59:01;;;;;;;1.35;1.00;;;19.70;40.70;;;;;;5119090;28;20198;-83
2023/05/26 04:01:27;;;;;;;1.80;1.05;;;19.70;40.60;;;;;;5102238;28;20228;-83
2023/05/26 04:03:54;;;;;;;1.30;1.10;;;19.70;40.70;;;;;;5118932;28;20713;-83
2023/05/26 04:06:22;;;;;;;1.10;1.00;;;19.70;40.60;;;;;;5119013;28;20255;-83
2023/05/26 04:08:48;;;;;;;1.05;0.95;;;19.70;40.70;;;;;;5120317;28;20141;-84
2023/05/26 04:11:14;;;;;;;1.15;1.00;;;19.70;40.70;;;;;;5118448;28;20538;-83
2023/05/26 04:13:41;;;;;;;1.10;1.00;;;19.60;40.60;;;;;;5118948;28;20610;-83
2023/05/26 04:16:07;;;;;;;1.15;1.00;;;19.70;40.60;;;;;;5101630;28;20183;-83
2023/05/26 04:18:36;;;;;;;0.70;0.70;;;19.70;40.70;;;;;;5118997;28;20148;-84
2023/05/26 04:21:03;;;;;;;2.78;1.00;;;19.70;40.50;;;;;;5120113;27;20145;-84
2023/05/26 04:23:28;;;;;;;1.08;0.93;;;19.70;40.60;;;;;;5118186;28;20156;-83
2023/05/26 04:25:55;;;;;;;1.75;0.90;;;19.70;40.60;;;;;;5119940;28;20256;-83
2023/05/26 04:28:24;;;;;;;1.73;1.20;;;19.80;40.60;;;;;;5118174;28;20172;-83
2023/05/26 04:30:52;;;;;;;1.00;0.90;;;19.80;40.50;;;;;;5119527;28;20189;-83
2023/05/26 04:33:17;;;;;;;1.52;1.00;;;19.80;40.50;;;;;;5119504;28;20196;-83
2023/05/26 04:35:44;;;;;;;1.55;1.00;;;19.80;40.40;;;;;;5117576;28;20191;-83
2023/05/26 04:38:12;;;;;;;1.50;1.20;;;19.90;40.40;;;;;;5100787;28;20618;-83
2023/05/26 04:40:41;;;;;;;1.02;0.93;;;19.80;40.30;;;;;;5101592;28;20176;-84
2023/05/26 04:43:06;;;;;;;0.80;0.80;;;19.90;40.40;;;;;;5100622;28;20537;-83
2023/05/26 04:45:35;;;;;;;1.55;1.00;;;19.90;40.40;;;;;;5118126;28;20232;-83
2023/05/26 04:48:00;;;;;;;1.73;0.98;;;19.80;40.40;;;;;;5101429;28;20278;-83
2023/05/26 04:50:27;;;;;;;1.70;1.10;;;19.90;40.30;;;;;;5117660;28;20678;-83
2023/05/26 04:52:53;;;;;;;1.23;1.00;;;19.90;40.30;;;;;;5100559;28;20160;-83
2023/05/26 04:55:20;;;;;;;1.38;0.98;;;19.90;40.30;;;;;;5117408;28;20676;-83
2023/05/26 04:57:46;;;;;;;1.10;0.90;;;19.90;40.30;;;;;;5099573;28;20535;-83
2023/05/26 05:00:13;;;;;;;1.30;1.20;;;19.90;40.30;;;;;;5117264;28;20152;-83
2023/05/26 05:02:39;;;;;;;0.80;0.80;;;19.90;40.30;;;;;;5117597;28;20158;-84
2023/05/26 05:05:06;;;;;;;1.10;1.00;;;19.90;40.20;;;;;;5117150;28;20192;-84
2023/05/26 05:07:32;;;;;;;1.30;1.20;;;20.00;40.30;;;;;;5117146;28;20618;-83
2023/05/26 05:09:58;;;;;;;1.52;1.10;;;19.90;40.20;;;;;;5099875;28;20278;-83
2023/05/26 05:12:24;;;;;;;1.27;0.93;;;20.00;40.30;;;;;;5116950;28;20184;-83
2023/05/26 05:14:50;;;;;;;1.10;1.00;;;20.00;40.30;;;;;;5118364;28;20195;-83
2023/05/26 05:17:16;;;;;;;1.33;1.00;;;20.00;40.30;;;;;;5118342;28;20201;-84
2023/05/26 05:19:42;;;;;;;1.15;0.88;;;20.00;40.30;;;;;;5116414;28;20183;-83
2023/05/26 05:22:08;;;;;;;0.88;0.88;;;20.00;40.30;;;;;;5099173;28;20164;-83
2023/05/26 05:24:33;;;;;;;1.40;1.00;;;20.00;40.20;;;;;;5116055;28;20227;-83
2023/05/26 05:27:00;;;;;;;1.40;1.02;;;20.10;40.20;;;;;;5099004;28;20211;-83
2023/05/26 05:29:25;;;;;;;0.98;0.80;;;20.00;40.10;;;;;;5117152;27;20321;-83
2023/05/26 05:31:51;;;;;;;1.00;0.90;;;20.10;40.20;;;;;;5116174;28;20176;-83
2023/05/26 05:34:17;;;;;;;1.08;0.90;;;20.10;40.10;;;;;;5117337;28;20216;-83
2023/05/26 05:36:42;;;;;;;1.20;0.90;;;20.10;40.10;;;;;;5116110;28;20491;-82
2023/05/26 05:39:08;;;;;;;1.20;1.10;;;20.10;40.20;;;;;;5115753;28;20559;-83
2023/05/26 05:41:35;;;;;;;1.23;1.08;;;20.10;40.20;;;;;;5115540;28;20629;-83
2023/05/26 05:44:01;;;;;;;0.90;0.80;;;20.10;40.10;;;;;;5116261;28;20164;-83
2023/05/26 05:46:27;;;;;;;0.88;0.88;;;20.10;40.00;;;;;;5115678;28;20152;-83
2023/05/26 05:48:55;;;;;;;0.77;0.70;;;20.10;40.00;;;;;;5115345;28;20160;-83
2023/05/26 05:51:21;;;;;;;0.88;0.88;;;20.20;40.00;;;;;;5115374;28;20278;-83
2023/05/26 05:53:46;;;;;;;1.65;1.10;;;20.10;39.90;;;;;;5116968;28;20289;-83
2023/05/26 05:56:13;;;;;;;2.22;1.05;;;20.10;40.00;;;;;;5114746;28;20217;-83
2023/05/26 05:58:39;;;;;;;0.95;0.80;;;20.20;40.00;;;;;;5098754;28;20168;-84
2023/05/26 06:01:05;;;;;;;1.55;1.33;;;20.10;40.00;;;;;;5115629;28;20156;-83
2023/05/26 06:03:30;;;;;;;1.45;1.10;;;20.20;40.00;;;;;;5115541;28;20152;-84
2023/05/26 06:05:56;;;;;;;1.08;0.88;;;20.20;39.90;;;;;;5117335;28;20245;-83
2023/05/26 06:08:22;;;;;;;1.33;0.77;;;20.10;40.00;;;;;;5115704;28;20495;-83
2023/05/26 06:10:49;;;;;;;1.50;1.00;;;20.20;39.90;;;;;;5116708;28;20180;-84
2023/05/26 06:13:17;;;;;;;2.13;1.05;;;20.20;39.90;;;;;;5115228;28;20152;-84
2023/05/26 06:15:43;;;;;;;0.95;0.85;;;20.30;39.80;;;;;;5114847;28;20164;-83
2023/05/26 06:18:08;;;;;;;1.40;1.13;;;20.20;39.80;;;;;;5115774;28;20241;-84
2023/05/26 06:20:34;;;;;;;1.20;0.98;;;20.20;39.90;;;;;;5116087;28;20188;-83
2023/05/26 06:23:00;;;;;;;0.93;0.80;;;20.20;40.00;;;;;;5100204;28;20551;-83
2023/05/26 06:25:25;;;;;;;1.17;0.90;;;20.10;40.10;;;;;;5116293;28;20179;-85
2023/05/26 06:27:52;;;;;;;0.90;0.80;;;20.10;40.10;;;;;;5116439;28;20634;-84
2023/05/26 06:30:18;;;;;;;1.33;0.98;;;20.10;40.40;;;;;;5098295;28;20191;-83
2023/05/26 06:32:43;;;;;;;1.45;0.90;;;20.10;40.20;;;;;;5114061;28;20620;-84
2023/05/26 06:35:09;;;;;;;1.05;0.95;;;20.10;40.30;;;;;;5098262;28;20627;-84
2023/05/26 06:37:35;;;;;;;1.40;1.30;;;20.20;40.10;;;;;;5097855;28;20572;-84
2023/05/26 06:40:00;;;;;;;1.00;0.90;;;20.20;40.10;;;;;;5113739;28;20731;-84
2023/05/26 06:42:26;;;;;;;1.45;1.10;;;20.10;40.10;;;;;;5114186;28;20529;-83
2023/05/26 06:44:52;;;;;;;1.42;1.00;;;20.00;40.30;;;;;;5114590;28;20164;-84
2023/05/26 06:47:22;;;;;;;1.00;0.90;;;19.90;40.50;;;;;;5097906;28;20638;-83
2023/05/26 06:49:48;;;;;;;1.02;0.90;;;19.80;40.60;;;;;;5115096;28;20202;-83
2023/05/26 06:52:16;;;;;;;1.20;0.82;;;20.00;40.70;;;;;;5097598;28;20164;-84
2023/05/26 06:54:42;;;;;;;1.10;1.00;;;19.90;40.50;;;;;;5102027;28;20164;-83
2023/05/26 06:57:07;;;;;;;1.30;0.90;;;20.00;40.60;;;;;;5101722;28;20160;-83
2023/05/26 06:59:33;;;;;;;1.98;0.93;;;20.00;40.60;;;;;;5119632;28;20535;-83
2023/05/26 07:01:58;;;;;;;1.10;1.00;;;20.00;40.50;;;;;;5120631;28;20503;-83
2023/05/26 07:04:24;;;;;;;1.40;1.00;;;20.00;40.60;;;;;;5120936;28;20164;-84
2023/05/26 07:06:50;;;;;;;0.98;0.90;;;20.00;40.50;;;;;;5119663;28;20159;-83
2023/05/26 07:09:15;;;;;;;1.25;1.00;;;20.00;40.50;;;;;;5119073;28;20159;-84
2023/05/26 07:11:41;;;;;;;1.45;0.95;;;19.90;40.50;;;;;;5119029;28;20144;-84
2023/05/26 07:14:07;;;;;;;1.25;1.15;;;20.00;40.40;;;;;;5119770;28;20235;-84
2023/05/26 07:16:32;;;;;;;2.08;1.13;;;20.00;40.40;;;;;;5124274;28;20174;-83
2023/05/26 07:18:58;;;;;;;1.25;0.90;;;20.00;40.40;;;;;;5120471;28;20197;-82
2023/05/26 07:21:25;;;;;;;0.90;0.80;;;20.00;40.40;;;;;;5119386;28;20626;-82
2023/05/26 07:23:51;;;;;;;1.25;0.88;;;20.00;40.50;;;;;;5102122;28;20507;-83
2023/05/26 07:26:17;;;;;;;1.63;0.90;;;19.90;40.50;;;;;;5118909;27;20351;-82
2023/05/26 07:28:42;;;;;;;0.68;0.68;;;20.00;40.60;;;;;;5119740;28;20168;-82
2023/05/26 07:31:08;;;;;;;0.77;0.77;;;19.90;40.60;;;;;;5117580;28;20183;-83
2023/05/26 07:33:34;;;;;;;0.82;0.73;;;19.90;40.50;;;;;;5116655;28;20157;-83
2023/05/26 07:35:59;;;;;;;1.70;1.00;;;20.00;40.50;;;;;;5117620;28;20517;-83
2023/05/26 07:38:25;;;;;;;1.67;0.88;;;20.00;40.30;;;;;;5117500;28;20574;-82
2023/05/26 07:40:51;;;;;;;1.10;0.80;;;20.00;40.40;;;;;;5119093;28;20160;-82
2023/05/26 07:43:17;;;;;;;1.38;0.90;;;20.00;40.40;;;;;;5117757;28;20172;-83
2023/05/26 07:45:42;;;;;;;0.90;0.82;;;20.10;40.60;;;;;;5118283;28;20180;-83
2023/05/26 07:48:08;;;;;;;1.30;0.80;;;20.00;40.30;;;;;;5117090;28;20218;-82
2023/05/26 07:50:34;;;;;;;1.27;0.80;;;20.10;40.40;;;;;;5100303;28;20721;-84
2023/05/26 07:52:59;;;;;;;1.52;1.00;;;20.10;40.30;;;;;;5116161;28;20170;-83
2023/05/26 07:55:25;;;;;;;0.60;0.60;;;20.10;40.10;;;;;;5116133;28;20187;-83
2023/05/26 07:57:51;;;;;;;1.30;0.90;;;20.10;40.80;;;;;;5116293;28;20140;-83
2023/05/26 08:00:18;;;;;;;0.98;0.80;;;20.00;40.20;;;;;;5116044;28;20205;-83
2023/05/26 08:02:43;;;;;;;0.80;0.80;;;20.10;40.10;;;;;;5116086;28;20156;-83
2023/05/26 08:05:09;;;;;;;1.52;0.73;;;20.00;40.10;;;;;;5115424;28;20171;-83
2023/05/26 08:07:35;;;;;;;0.95;0.70;;;20.10;40.00;;;;;;5116263;28;20553;-82
2023/05/26 08:10:00;;;;;;;1.08;0.90;;;20.10;40.00;;;;;;5116813;28;20184;-84
2023/05/26 08:12:27;;;;;;;1.23;0.90;;;20.10;39.80;;;;;;5116923;28;20152;-83
2023/05/26 08:14:54;;;;;;;1.67;0.82;;;20.10;39.80;;;;;;5116098;28;20156;-83
2023/05/26 08:17:20;;;;;;;1.00;0.95;;;20.10;39.80;;;;;;5115735;28;20160;-83
2023/05/26 08:19:46;;;;;;;0.60;0.60;;;20.10;39.80;;;;;;5115971;28;20221;-83
2023/05/26 08:22:11;;;;;;;1.55;0.73;;;20.10;39.90;;;;;;5119349;27;20155;-82
2023/05/26 08:24:38;;;;;;;0.88;0.88;;;20.10;39.90;;;;;;5137785;27;20563;-82
2023/05/26 08:27:05;;;;;;;0.93;0.65;;;20.10;39.90;;;;;;5138234;27;20218;-82
2023/05/26 08:29:30;;;;;;;0.90;0.80;;;20.10;40.00;;;;;;5120136;27;20187;-83
2023/05/26 08:31:56;;;;;;;3.53;0.90;;;20.10;39.90;;;;;;5120833;27;20207;-83
2023/05/26 08:34:22;;;;;;;1.08;0.85;;;20.00;40.00;;;;;;5120629;27;20174;-82
2023/05/26 08:36:56;;;;;;;1.52;0.93;;;20.00;40.50;;;;;;5121340;27;20209;-83
2023/05/26 08:39:22;;;;;;;1.30;0.90;;;20.10;39.70;;;;;;5058546;28;20212;-83
2023/05/26 08:41:53;;;;;;;0.68;0.68;;;20.00;39.80;;;;;;5081911;28;20188;-82
2023/05/26 08:44:19;;;;;;;2.05;0.60;;;20.00;39.60;;;;;;5038738;28;20173;-83
2023/05/26 08:46:45;;;;;;;0.60;0.60;;;20.10;39.50;;;;;;5062898;28;20196;-83
2023/05/26 08:49:14;;;;;;;1.55;0.63;;;20.10;39.40;;;;;;5065076;28;20217;-83
2023/05/26 08:51:40;;;;;;;0.80;0.70;;;20.10;39.30;;;;;;5047487;28;20184;-82
2023/05/26 08:54:06;;;;;;;1.70;0.70;;;20.10;39.20;;;;;;5047441;28;20189;-83
2023/05/26 08:56:32;;;;;;;2.88;0.77;;;20.10;39.20;;;;;;5047867;28;20165;-83
2023/05/26 08:59:00;;;;;;;1.00;0.73;;;20.00;39.30;;;;;;5081921;28;20718;-83
2023/05/26 09:01:26;;;;;;;0.85;0.80;;;20.00;39.50;;;;;;5047334;28;20200;-83
2023/05/26 09:03:52;;;;;;;0.90;0.80;;;19.90;39.30;;;;;;5060724;28;20204;-82
2023/05/26 09:06:17;;;;;;;1.02;0.73;;;19.90;39.50;;;;;;5122203;28;20219;-82
2023/05/26 09:08:43;;;;;;;0.90;0.73;;;19.90;40.00;;;;;;5104559;28;20527;-83
2023/05/26 09:11:22;;;;;;;1.20;0.73;;;19.90;39.30;;;;;;5121375;28;20612;-83
2023/05/26 09:13:52;;;;;;;0.90;0.77;;;19.90;39.20;;;;;;5106003;28;20164;-82
2023/05/26 09:16:20;;;;;;;0.60;0.60;;;19.90;39.20;;;;;;5104737;28;20179;-81
2023/05/26 09:18:56;;;;;;;0.55;0.55;;;20.00;38.90;;;;;;5104948;28;20163;-83
2023/05/26 09:21:22;;;;;;;0.60;0.60;;;19.90;38.80;;;;;;5121663;28;20160;-83
2023/05/26 09:23:54;;;;;;;1.02;0.50;;;20.00;38.60;;;;;;5125738;27;20190;-83
2023/05/26 09:26:26;;;;;;;1.33;0.57;;;20.00;38.30;;;;;;5101068;28;20216;-83
2023/05/26 09:28:52;;;;;;;0.63;0.60;;;20.10;38.20;;;;;;5069181;28;20229;-83
2023/05/26 09:31:18;;;;;;;0.88;0.65;;;20.10;38.10;;;;;;5103602;28;20188;-83
2023/05/26 09:33:46;;;;;;;0.70;0.70;;;20.10;38.10;;;;;;5085606;28;20171;-83
2023/05/26 09:36:15;;;;;;;0.60;0.60;;;20.10;38.20;;;;;;5102355;28;20302;-83
2023/05/26 09:38:42;;;;;;;1.23;0.80;;;20.10;38.20;;;;;;5083813;28;20193;-83
2023/05/26 09:41:10;;;;;;;0.70;0.68;;;20.00;38.20;;;;;;5081762;28;20168;-83
2023/05/26 09:43:37;;;;;;;1.20;0.73;;;20.00;37.90;;;;;;5060280;28;20660;-82
2023/05/26 09:46:20;;;;;;;1.00;0.60;;;20.00;38.00;;;;;;5059266;28;20273;-83
2023/05/26 09:48:50;;;;;;;0.52;0.50;;;20.00;38.20;;;;;;5041288;28;20312;-82
2023/05/26 09:51:19;;;;;;;1.27;0.60;;;20.00;37.90;;;;;;5024303;28;20215;-82
2023/05/26 09:53:46;;;;;;;0.68;0.60;;;20.10;38.00;;;;;;5024837;28;20219;-82
2023/05/26 09:56:14;;;;;;;0.73;0.57;;;20.10;37.80;;;;;;5040946;28;20157;-82
2023/05/26 09:58:41;;;;;;;2.08;0.60;;;20.00;37.60;;;;;;5039261;28;20252;-82
2023/05/26 10:01:06;;;;;;;0.90;0.73;;;20.10;37.80;;;;;;5041696;28;20162;-82
2023/05/26 10:03:33;;;;;;;0.60;0.60;;;20.10;37.60;;;;;;5040940;28;20706;-82
2023/05/26 10:05:59;;;;;;;1.50;0.55;;;20.10;37.70;;;;;;5041506;28;20166;-82
2023/05/26 10:08:26;;;;;;;0.50;0.50;;;20.10;37.60;;;;;;5040891;28;20178;-82
2023/05/26 10:10:52;;;;;;;0.77;0.60;;;20.00;37.50;;;;;;5041390;28;20281;-82
2023/05/26 10:13:18;;;;;;;0.50;0.50;;;20.10;37.40;;;;;;5024129;28;20170;-82
2023/05/26 10:15:45;;;;;;;1.00;0.60;;;20.10;37.30;;;;;;5099065;28;20232;-81
2023/05/26 10:18:11;;;;;;;0.63;0.50;;;20.10;37.30;;;;;;5096730;28;20145;-82
2023/05/26 10:20:37;;;;;;;1.55;0.65;;;20.10;37.40;;;;;;5097077;28;20180;-82
2023/05/26 10:23:11;;;;;;;0.77;0.55;;;19.90;37.60;;;;;;5097250;28;20172;-82
2023/05/26 10:25:46;;;;;;;0.80;0.50;;;19.90;37.70;;;;;;5081238;28;20757;-83
2023/05/26 10:28:33;;;;;;;0.60;0.60;;;19.90;37.50;;;;;;5125265;27;20163;-82
2023/05/26 10:31:00;;;;;;;1.05;0.60;;;19.90;37.60;;;;;;5145232;27;20175;-81
2023/05/26 10:33:41;;;;;;;1.27;0.70;;;19.90;37.40;;;;;;5110545;27;20159;-82
2023/05/26 10:36:15;;;;;;;0.50;0.50;;;19.90;37.50;;;;;;5108989;27;20175;-82
2023/05/26 10:38:48;;;;;;;0.93;0.60;;;19.90;37.40;;;;;;5108889;27;20621;-82
2023/05/26 10:41:31;;;;;;;0.75;0.40;;;19.90;37.20;;;;;;5126043;27;20167;-82
2023/05/26 10:43:58;;;;;;;0.63;0.40;;;19.90;37.10;;;;;;5108413;27;20168;-82
2023/05/26 10:46:24;;;;;;;2.10;0.57;;;19.90;37.00;;;;;;5090770;27;20163;-82
2023/05/26 10:48:58;;;;;;;0.63;0.50;;;19.90;37.10;;;;;;5107608;27;20663;-82
2023/05/26 10:51:33;;;;;;;0.50;0.50;;;19.80;36.90;;;;;;5108820;27;20683;-82
2023/05/26 10:54:13;;;;;;;0.52;0.52;;;19.80;37.00;;;;;;5147366;27;20151;-82
2023/05/26 10:56:42;;;;;;;0.50;0.50;;;19.80;36.90;;;;;;5148537;27;20524;-82
2023/05/26 10:59:08;;;;;;;0.88;0.50;;;19.80;36.90;;;;;;5129291;27;20264;-83
2023/05/26 11:01:34;;;;;;;0.68;0.43;;;19.90;36.60;;;;;;5129633;27;20164;-83
2023/05/26 11:04:09;;;;;;;0.57;0.57;;;19.90;36.50;;;;;;5129393;27;20170;-83
2023/05/26 11:06:48;;;;;;;0.47;0.47;;;19.90;36.30;;;;;;5113165;27;20517;-83
2023/05/26 11:09:15;;;;;;;0.40;0.38;;;19.90;36.30;;;;;;5114986;27;20160;-82
2023/05/26 11:11:57;;;;;;;0.50;0.50;;;20.00;36.40;;;;;;5098290;27;20160;-82
2023/05/26 11:14:28;;;;;;;0.40;0.40;;;19.90;36.20;;;;;;5092526;28;20243;-83
2023/05/26 11:16:57;;;;;;;0.50;0.50;;;20.00;36.10;;;;;;5074660;28;20278;-83
2023/05/26 11:19:31;;;;;;;0.68;0.40;;;20.00;36.10;;;;;;5093324;28;20157;-82
2023/05/26 11:21:59;;;;;;;0.60;0.50;;;20.00;36.00;;;;;;5092891;28;20183;-82
2023/05/26 11:24:25;;;;;;;0.80;0.65;;;19.90;35.90;;;;;;5092368;28;20160;-82
2023/05/26 11:26:51;;;;;;;0.85;0.40;;;19.90;36.10;;;;;;5074534;28;20223;-82
2023/05/26 11:29:20;;;;;;;0.40;0.40;;;19.90;36.00;;;;;;5109020;28;20174;-84
2023/05/26 11:31:48;;;;;;;1.40;0.50;;;19.90;35.90;;;;;;5094380;28;20164;-82
2023/05/26 11:34:16;;;;;;;0.57;0.40;;;19.90;36.60;;;;;;5127379;28;20176;-83
2023/05/26 11:36:46;;;;;;;1.05;0.40;;;19.90;35.60;;;;;;5093857;28;20164;-82
2023/05/26 11:39:15;;;;;;;0.65;0.50;;;20.00;35.50;;;;;;5075740;28;20191;-82
2023/05/26 11:41:42;;;;;;;0.40;0.38;;;20.10;35.40;;;;;;5094415;28;20183;-82
2023/05/26 11:44:08;;;;;;;1.33;0.40;;;20.10;35.40;;;;;;5092771;28;20172;-82
2023/05/26 11:46:37;;;;;;;2.00;0.45;;;20.00;35.40;;;;;;5109914;28;20543;-82
2023/05/26 11:49:04;;;;;;;0.60;0.50;;;20.00;35.30;;;;;;5091487;28;20176;-83
2023/05/26 11:51:31;;;;;;;0.65;0.52;;;20.00;35.20;;;;;;5124867;28;20188;-83
2023/05/26 11:53:58;;;;;;;0.40;0.40;;;20.00;35.10;;;;;;5075501;28;20343;-83
2023/05/26 11:56:35;;;;;;;0.43;0.43;;;20.00;35.00;;;;;;5110252;28;20183;-81
2023/05/26 11:59:01;;;;;;;0.40;0.32;;;20.00;35.10;;;;;;5093054;28;20182;-82
2023/05/26 12:01:27;;;;;;;0.52;0.50;;;20.00;35.00;;;;;;5092253;28;20168;-83
2023/05/26 12:03:59;;;;;;;0.45;0.40;;;20.00;35.70;;;;;;5076264;28;20184;-83
2023/05/26 12:06:27;;;;;;;0.70;0.50;;;20.10;35.20;;;;;;5127318;28;20163;-83
2023/05/26 12:09:02;;;;;;;0.57;0.40;;;20.00;35.00;;;;;;5093833;28;20191;-83
2023/05/26 12:11:33;;;;;;;0.93;0.60;;;20.10;35.00;;;;;;5112007;28;20196;-82
2023/05/26 12:14:01;;;;;;;1.52;0.40;;;20.10;35.00;;;;;;5093223;28;20178;-83
2023/05/26 12:16:31;;;;;;;0.30;0.30;;;20.10;34.90;;;;;;5091040;28;20255;-83
2023/05/26 12:19:02;;;;;;;0.98;0.50;;;20.00;34.70;;;;;;5092144;28;20239;-83
2023/05/26 12:21:29;;;;;;;0.82;0.60;;;20.10;34.90;;;;;;5108133;28;20193;-83
2023/05/26 12:23:56;;;;;;;0.50;0.40;;;20.00;34.80;;;;;;5125838;28;20637;-81
2023/05/26 12:26:25;;;;;;;0.50;0.40;;;19.90;35.30;;;;;;5104919;28;20347;-82
2023/05/26 12:29:11;;;;;;;0.35;0.35;;;20.00;34.70;;;;;;5088538;28;20175;-82
2023/05/26 12:31:39;;;;;;;1.67;0.40;;;19.90;34.70;;;;;;5087807;28;20212;-83
2023/05/26 12:34:06;;;;;;;1.75;0.47;;;20.00;34.60;;;;;;5088169;28;20141;-83
2023/05/26 12:36:34;;;;;;;0.47;0.40;;;19.90;34.60;;;;;;5086589;28;20240;-82
2023/05/26 12:39:00;;;;;;;1.05;0.50;;;20.00;34.50;;;;;;5104813;28;20149;-82
2023/05/26 12:41:27;;;;;;;0.30;0.30;;;20.10;34.30;;;;;;5088386;28;20211;-82
2023/05/26 12:43:53;;;;;;;0.40;0.40;;;20.10;34.20;;;;;;5088332;28;20145;-82
2023/05/26 12:46:20;;;;;;;0.50;0.50;;;20.10;34.10;;;;;;5103900;28;20165;-82
2023/05/26 12:48:48;;;;;;;1.65;0.40;;;20.10;34.20;;;;;;5070378;28;20186;-81